الصفحة الرئيسية
METAR-TAF:

METAR-TAF

مطار :

يوكسكوفا, تركيا

دائرة عرض: 37-33-06N, خط طول: 44-14-01E, ارتفاع: 1950 متر

مراقبة الطقس الحالي

تاريخ ووقت الإصدار 7ساعات و 41 دقيقة قبل الساعة 17:50UTC
ريح 5 عقدة من الجنوب/الجنوب الشرقي, الاتجاه يتراوح بين الشرق و الجنوب/الجنوب الغربي
درجة الحرارة 19°درجة مئوية
الرطوبة 52%
ضغط 1020 hPa
الرؤية 10 كم أو أكثر
غيوم متفرقة على ارتفاع 4000 قدم

METAR: LTCW 031750Z 16005KT 090V210 9999 SCT040 19/09 Q1020

زمن: 04:31 (01:31 UTC)

توقعات

تاريخ ووقت الإصدار 2ساعات و 51 دقيقة قبل الساعة 22:40UTC
التوقعات صالحة من04 الساعة 00 UTC إلى 04 الساعة 09 UTC
ريح 8 عقدة من الغرب/الشمال الغربي
الرؤية 10 كم أو أكثر
غيوم قليلة على ارتفاع 4000 قدم

TAF: LTCW 032240Z 0400/0409 30008KT 9999 FEW040

أرصاد الطقس والتوقعات من أكثر من 4000 مطار (تقارير الطقس للمطار METAR والتنبؤ بالطقس بالمطارTAF).

المحطات المتاحة هي النقط الصفراء والحمراء على الخريطة.

حرك المؤشر فوق النقطة لمعرفة اسم المحطة.

ثم انقر لمعرفة أرصاد وتوقعات الطقس.

لتغيير الخارطة: اضغط على الأزرار الخضراء مع رمز الصليب الأسود للتكبير. على الزر الأخضر مع شرطة للتصغير، أو على الأسهم الخضراء للخرائط المجاورة.


METAR-TAF: